Observation data for Roaring Springs on 01/19/2019      Previous  Date  Next       Current Mesonet Observations  Soil Data  Daily Summary Page  Observations in Plain Language
KRRS 190600Z 34024G32KT 01/M00 A2999 RMK A01 T00051003  RH  095%=      5-min Rain = 0
KRRS 190605Z 34024G32KT 00/M00 A2999 RMK A01 T00041002  RH  097%=      5-min Rain = 0
KRRS 190610Z 34022G30KT 00/M00 A30 RMK A01 T00021002  RH  098%=      5-min Rain = 0
KRRS 190615Z 34021G27KT 00/M00 A30 RMK A01 T00021002  RH  099%=      5-min Rain = 0
KRRS 190620Z 34020G27KT 00/M00 A30 RMK A01 T00021001  RH  099%=      5-min Rain = 0
KRRS 190625Z 34022G30KT 00/M00 A30 RMK A01 T00021001  RH  099%=      5-min Rain = 0
KRRS 190630Z 34019G27KT 00/M00 A3001 RMK A01 T00021002  RH  099%=      5-min Rain = 0
KRRS 190635Z 34020G26KT 00/M00 A3001 RMK A01 T00021002  RH  098%=      5-min Rain = 0
KRRS 190640Z 34017G23KT 00/M00 A3002 RMK A01 T00031003  RH  097%=      5-min Rain = 0
KRRS 190645Z 34015G22KT 00/M00 A3002 RMK A01 T00041002  RH  097%=      5-min Rain = 0
KRRS 190650Z 34019G26KT 01/M00 A3002 RMK A01 T00051004  RH  095%=      5-min Rain = 0
KRRS 190655Z 34019G25KT 00/M01 A3002 RMK A01 T00041005  RH  095%=      5-min Rain = 0
KRRS 190700Z 34021G29KT 01/M01 A3002 RMK A01 T00051005  RH  094%=      5-min Rain = 0
KRRS 190705Z 34021G30KT 00/M01 A3002 RMK A01 T00041005  RH  095%=      5-min Rain = 0
KRRS 190710Z 34021G28KT 00/M00 A3003 RMK A01 T00021003  RH  097%=      5-min Rain = 0
KRRS 190715Z 34022G30KT 00/M00 A3003 RMK A01 T00011002  RH  099%=      5-min Rain = 0
KRRS 190720Z 35022G28KT 00/00 A3003 RMK A01 T00-000-2  RH  100%=      5-min Rain = 0
KRRS 190725Z 35019G26KT M00/M00 A3004 RMK A01 T10011002  RH  100%=      5-min Rain = 0
KRRS 190730Z 34017G24KT M00/M00 A3004 RMK A01 T10011002  RH  100%=      5-min Rain = 0
KRRS 190735Z 35017KT M00/M00 A3004 RMK A01 T10011003  RH  100%=      5-min Rain = 0
KRRS 190740Z 34017G23KT 00/00 A3004 RMK A01 T00-000-2  RH  100%=      5-min Rain = 0
KRRS 190745Z 34018G25KT 00/M00 A3004 RMK A01 T00011001  RH  100%=      5-min Rain = 0
KRRS 190750Z 34017G23KT 00/00 A3004 RMK A01 T000300-0  RH  099%=      5-min Rain = 0
KRRS 190755Z 34017G25KT 01/M00 A3004 RMK A01 T00061002  RH  096%=      5-min Rain = 0
KRRS 190800Z 34019G24KT 01/M00 A3004 RMK A01 T00081004  RH  093%=      5-min Rain = 0
KRRS 190805Z 34018G24KT 01/M00 A3004 RMK A01 T00101004  RH  092%=      5-min Rain = 0
KRRS 190810Z 34019G26KT 01/M00 A3004 RMK A01 T00101004  RH  091%=      5-min Rain = 0
KRRS 190815Z 34018G24KT 01/M00 A3004 RMK A01 T00111004  RH  091%=      5-min Rain = 0
KRRS 190820Z 35016G23KT 01/M00 A3004 RMK A01 T00121003  RH  091%=      5-min Rain = 0
KRRS 190825Z 35017G23KT 01/M00 A3004 RMK A01 T00121003  RH  091%=      5-min Rain = 0
KRRS 190830Z 35019G25KT 01/M00 A3005 RMK A01 T00131003  RH  090%=      5-min Rain = 0
KRRS 190835Z 35017G24KT 01/M00 A3005 RMK A01 T00141002  RH  090%=      5-min Rain = 0
KRRS 190840Z 35017G24KT 01/M00 A3005 RMK A01 T00141002  RH  090%=      5-min Rain = 0
KRRS 190845Z 35015G21KT 01/M00 A3005 RMK A01 T00141002  RH  090%=      5-min Rain = 0
KRRS 190850Z 34013KT 01/M00 A3006 RMK A01 T00131001  RH  091%=      5-min Rain = 0
KRRS 190855Z 34016G24KT 01/M00 A3006 RMK A01 T00131003  RH  090%=      5-min Rain = 0
KRRS 190900Z 35021G31KT 01/M01 A3006 RMK A01 T00131009  RH  086%=      5-min Rain = 0
KRRS 190905Z 35019G28KT 01/M01 A3006 RMK A01 T00121012  RH  084%=      5-min Rain = 0
KRRS 190910Z 34018G26KT 01/M01 A3006 RMK A01 T00111012  RH  085%=      5-min Rain = 0
KRRS 190915Z 33018G29KT 01/M01 A3007 RMK A01 T00101013  RH  086%=      5-min Rain = 0
KRRS 190920Z 34023G32KT 01/M02 A3007 RMK A01 T00091016  RH  084%=      5-min Rain = 0
KRRS 190925Z 34020G28KT 01/M02 A3008 RMK A01 T00061018  RH  084%=      5-min Rain = 0
KRRS 190930Z 34022G29KT 01/M02 A3008 RMK A01 T00051020  RH  084%=      5-min Rain = 0
KRRS 190935Z 34022G31KT 01/M02 A3009 RMK A01 T00051021  RH  083%=      5-min Rain = 0
KRRS 190940Z 34023G28KT 00/M02 A3009 RMK A01 T00041022  RH  083%=      5-min Rain = 0
KRRS 190945Z 34021G26KT 00/M02 A3009 RMK A01 T00031023  RH  083%=      5-min Rain = 0
KRRS 190950Z 35021G30KT 00/M03 A301 RMK A01 T00021025  RH  083%=      5-min Rain = 0
KRRS 190955Z 35021G29KT 00/M03 A301 RMK A01 T00011026  RH  082%=      5-min Rain = 0
KRRS 191000Z 34021G28KT 00/03 A301 RMK A01 T00-00-27  RH  082%=      5-min Rain = 0
KRRS 191005Z 35022G30KT M00/M03 A301 RMK A01 T10011029  RH  082%=      5-min Rain = 0
KRRS 191010Z 35020G26KT M00/M03 A301 RMK A01 T10011029  RH  082%=      5-min Rain = 0
KRRS 191015Z 34019G26KT M00/M03 A301 RMK A01 T10021029  RH  083%=      5-min Rain = 0
KRRS 191020Z 34016G22KT M00/M03 A3011 RMK A01 T10031029  RH  083%=      5-min Rain = 0
KRRS 191025Z 33018G28KT M00/M03 A3011 RMK A01 T10041029  RH  084%=      5-min Rain = 0
KRRS 191030Z 33021G29KT M00/M03 A3011 RMK A01 T10041033  RH  082%=      5-min Rain = 0
KRRS 191035Z 34022G27KT M01/M04 A3011 RMK A01 T10051035  RH  081%=      5-min Rain = 0
KRRS 191040Z 34021G29KT M01/M04 A3012 RMK A01 T10051035  RH  081%=      5-min Rain = 0
KRRS 191045Z 34020G29KT M01/M04 A3012 RMK A01 T10061037  RH  080%=      5-min Rain = 0
KRRS 191050Z 34021G28KT M01/M04 A3012 RMK A01 T10071037  RH  080%=      5-min Rain = 0
KRRS 191055Z 34020G27KT M01/M04 A3012 RMK A01 T10071038  RH  080%=      5-min Rain = 0
KRRS 191100Z 34019G28KT M01/M04 A3013 RMK A01 T10081039  RH  080%=      5-min Rain = 0
KRRS 191105Z 34023G30KT M01/M04 A3013 RMK A01 T10081040  RH  079%=      5-min Rain = 0
KRRS 191110Z 34021G30KT M01/M04 A3013 RMK A01 T10081041  RH  079%=      5-min Rain = 0
KRRS 191115Z 34021G29KT M01/M04 A3014 RMK A01 T10091042  RH  079%=      5-min Rain = 0
KRRS 191120Z 34019G25KT M01/M04 A3014 RMK A01 T10101042  RH  080%=      5-min Rain = 0
KRRS 191125Z 34018G23KT M01/M04 A3014 RMK A01 T10111042  RH  080%=      5-min Rain = 0
KRRS 191130Z 33017G26KT M01/M04 A3015 RMK A01 T10121042  RH  081%=      5-min Rain = 0
KRRS 191135Z 33019G26KT M01/M04 A3015 RMK A01 T10111042  RH  080%=      5-min Rain = 0
KRRS 191140Z 33018G26KT M01/M04 A3016 RMK A01 T10111041  RH  080%=      5-min Rain = 0
KRRS 191145Z 33018G25KT M01/M04 A3016 RMK A01 T10101041  RH  080%=      5-min Rain = 0
KRRS 191150Z 34015G21KT M01/M04 A3016 RMK A01 T10111041  RH  080%=      5-min Rain = 0
KRRS 191155Z 33018G26KT M01/M04 A3016 RMK A01 T10111041  RH  081%=      5-min Rain = 0
KRRS 191200Z 33016G21KT M01/M04 A3017 RMK A01 T10111040  RH  081%=      5-min Rain = 0
KRRS 191205Z 33015G22KT M01/M04 A3017 RMK A01 T10111040  RH  082%=      5-min Rain = 0
KRRS 191210Z 33014G19KT M01/M04 A3017 RMK A01 T10111039  RH  082%=      5-min Rain = 0
KRRS 191215Z 33011KT M01/M04 A3018 RMK A01 T10121039  RH  082%=      5-min Rain = 0
KRRS 191220Z 33009KT M01/M04 A3018 RMK A01 T10141039  RH  084%=      5-min Rain = 0
KRRS 191225Z 32009KT M02/M04 A3018 RMK A01 T10151039  RH  084%=      5-min Rain = 0
KRRS 191230Z 32009KT M02/M04 A3018 RMK A01 T10161038  RH  085%=      5-min Rain = 0
KRRS 191235Z 32011KT M01/M04 A3018 RMK A01 T10141037  RH  085%=      5-min Rain = 0
KRRS 191240Z 32012G17KT M01/M04 A3018 RMK A01 T10121036  RH  084%=      5-min Rain = 0
KRRS 191245Z 32012G17KT M01/M04 A3019 RMK A01 T10121035  RH  084%=      5-min Rain = 0
KRRS 191250Z 32011KT M01/M04 A3019 RMK A01 T10131035  RH  085%=      5-min Rain = 0
KRRS 191255Z 32011KT M01/M04 A3019 RMK A01 T10131035  RH  085%=      5-min Rain = 0
KRRS 191300Z 32011KT M01/M04 A3019 RMK A01 T10131035  RH  085%=      5-min Rain = 0
KRRS 191305Z 32011KT M01/M04 A3019 RMK A01 T10131035  RH  085%=      5-min Rain = 0
KRRS 191310Z 33011KT M01/M04 A3019 RMK A01 T10141035  RH  086%=      5-min Rain = 0
KRRS 191315Z 33011KT M02/M04 A302 RMK A01 T10151036  RH  086%=      5-min Rain = 0
KRRS 191320Z 33012KT M02/M04 A302 RMK A01 T10151036  RH  087%=      5-min Rain = 0
KRRS 191325Z 33012KT M02/M04 A302 RMK A01 T10151036  RH  087%=      5-min Rain = 0
KRRS 191330Z 33012KT M02/M04 A302 RMK A01 T10151035  RH  086%=      5-min Rain = 0
KRRS 191335Z 33013KT M02/M04 A3021 RMK A01 T10151035  RH  087%=      5-min Rain = 0
KRRS 191340Z 33013KT M02/M04 A3021 RMK A01 T10161035  RH  087%=      5-min Rain = 0
KRRS 191345Z 34014KT M02/M04 A3021 RMK A01 T10161035  RH  087%=      5-min Rain = 0
KRRS 191350Z 34015G21KT M02/M04 A3021 RMK A01 T10151035  RH  087%=      5-min Rain = 0
KRRS 191355Z 34016G22KT M02/M04 A3021 RMK A01 T10151035  RH  087%=      5-min Rain = 0
KRRS 191400Z 34017G25KT M01/M04 A3021 RMK A01 T10141035  RH  086%=      5-min Rain = 0
KRRS 191405Z 34017G22KT M01/M03 A3021 RMK A01 T10131034  RH  086%=      5-min Rain = 0
KRRS 191410Z 34018G24KT M01/M03 A3022 RMK A01 T10131034  RH  086%=      5-min Rain = 0
KRRS 191415Z 34018G24KT M01/M03 A3022 RMK A01 T10121034  RH  086%=      5-min Rain = 0
KRRS 191420Z 34016G23KT M01/M03 A3022 RMK A01 T10111033  RH  085%=      5-min Rain = 0
KRRS 191425Z 34016G22KT M01/M03 A3023 RMK A01 T10101033  RH  085%=      5-min Rain = 0
KRRS 191430Z 34016G22KT M01/M03 A3023 RMK A01 T10091032  RH  085%=      5-min Rain = 0
KRRS 191435Z 34015G22KT M01/M03 A3024 RMK A01 T10071031  RH  084%=      5-min Rain = 0
KRRS 191440Z 34015G20KT M01/M03 A3024 RMK A01 T10061031  RH  084%=      5-min Rain = 0
KRRS 191445Z 33015G21KT M01/M03 A3025 RMK A01 T10051030  RH  083%=      5-min Rain = 0
KRRS 191450Z 33015G22KT M00/M03 A3025 RMK A01 T10031029  RH  083%=      5-min Rain = 0
KRRS 191455Z 33016G23KT M00/M03 A3025 RMK A01 T10021029  RH  082%=      5-min Rain = 0
KRRS 191500Z 33014G20KT 00/03 A3026 RMK A01 T00-00-28  RH  082%=      5-min Rain = 0
KRRS 191505Z 33017G22KT 00/03 A3026 RMK A01 T00000-28  RH  082%=      5-min Rain = 0
KRRS 191510Z 33017G23KT 00/M03 A3026 RMK A01 T00021028  RH  081%=      5-min Rain = 0
KRRS 191515Z 34017G24KT 00/M03 A3027 RMK A01 T00041027  RH  080%=      5-min Rain = 0
KRRS 191520Z 34019G28KT 01/M03 A3027 RMK A01 T00051028  RH  079%=      5-min Rain = 0
KRRS 191525Z 34017G26KT 01/M03 A3027 RMK A01 T00061027  RH  079%=      5-min Rain = 0
KRRS 191530Z 34020G35KT 01/M03 A3027 RMK A01 T00081028  RH  077%=      5-min Rain = 0
KRRS 191535Z 35019G26KT 01/M03 A3027 RMK A01 T00091027  RH  077%=      5-min Rain = 0
KRRS 191540Z 35020G27KT 01/M03 A3028 RMK A01 T00111027  RH  077%=      5-min Rain = 0
KRRS 191545Z 34017G25KT 01/M02 A3028 RMK A01 T00141024  RH  076%=      5-min Rain = 0
KRRS 191550Z 34023G30KT 01/M03 A3028 RMK A01 T00131028  RH  075%=      5-min Rain = 0
KRRS 191555Z 34021G28KT 01/M03 A3028 RMK A01 T00131027  RH  075%=      5-min Rain = 0
KRRS 191600Z 33023G28KT 01/M03 A3028 RMK A01 T00141027  RH  074%=      5-min Rain = 0
KRRS 191605Z 34023G30KT 01/M03 A3029 RMK A01 T00141028  RH  074%=      5-min Rain = 0
KRRS 191610Z 34023G29KT 02/M03 A3029 RMK A01 T00161027  RH  073%=      5-min Rain = 0
KRRS 191615Z 35022G30KT 02/M03 A303 RMK A01 T00181027  RH  073%=      5-min Rain = 0
KRRS 191620Z 34020G27KT 02/M03 A303 RMK A01 T00191026  RH  073%=      5-min Rain = 0
KRRS 191625Z 35020G28KT 02/M03 A3029 RMK A01 T00231025  RH  071%=      5-min Rain = 0
KRRS 191630Z 36019G25KT 02/M03 A303 RMK A01 T00241025  RH  071%=      5-min Rain = 0
KRRS 191635Z 36019G26KT 02/M03 A303 RMK A01 T00241025  RH  071%=      5-min Rain = 0
KRRS 191640Z 36019G27KT 03/M03 A303 RMK A01 T00251025  RH  070%=      5-min Rain = 0
KRRS 191645Z 35019G26KT 03/M02 A303 RMK A01 T00271024  RH  069%=      5-min Rain = 0
KRRS 191650Z 35020G27KT 03/M02 A303 RMK A01 T00291024  RH  069%=      5-min Rain = 0
KRRS 191655Z 35019G25KT 03/M02 A3031 RMK A01 T00291023  RH  069%=      5-min Rain = 0
KRRS 191700Z 34018G23KT 03/M02 A3031 RMK A01 T00321022  RH  069%=      5-min Rain = 0
KRRS 191705Z 34016G24KT 03/M02 A3031 RMK A01 T00341021  RH  068%=      5-min Rain = 0
KRRS 191710Z 35018G24KT 03/M02 A3031 RMK A01 T00321024  RH  067%=      5-min Rain = 0
KRRS 191715Z 34019G24KT 03/M02 A3031 RMK A01 T00311024  RH  067%=      5-min Rain = 0
KRRS 191720Z 35016G21KT 03/M02 A3032 RMK A01 T00331022  RH  068%=      5-min Rain = 0
KRRS 191725Z 34016G22KT 04/M02 A3031 RMK A01 T00361022  RH  067%=      5-min Rain = 0
KRRS 191730Z 35016G26KT 04/M02 A3031 RMK A01 T00391021  RH  065%=      5-min Rain = 0
KRRS 191735Z 34021G28KT 04/M02 A3031 RMK A01 T00381024  RH  065%=      5-min Rain = 0
KRRS 191740Z 35017G24KT 04/M02 A3031 RMK A01 T00401022  RH  064%=      5-min Rain = 0
KRRS 191745Z 35018G25KT 04/M02 A3031 RMK A01 T00421022  RH  063%=      5-min Rain = 0
KRRS 191750Z 34018G23KT 04/M02 A3031 RMK A01 T00421023  RH  063%=      5-min Rain = 0
KRRS 191755Z 35018G23KT 04/M02 A303 RMK A01 T00421023  RH  063%=      5-min Rain = 0
KRRS 191800Z 35017G24KT 04/M02 A303 RMK A01 T00421023  RH  063%=      5-min Rain = 0
KRRS 191805Z 35015G23KT 04/M02 A303 RMK A01 T00441023  RH  062%=      5-min Rain = 0
KRRS 191810Z 35018G24KT 05/M02 A3029 RMK A01 T00461023  RH  061%=      5-min Rain = 0
KRRS 191815Z 35017G24KT 04/M02 A303 RMK A01 T00441024  RH  062%=      5-min Rain = 0
KRRS 191820Z 34016G27KT 05/M02 A303 RMK A01 T00471022  RH  061%=      5-min Rain = 0
KRRS 191825Z 34020G25KT 05/M02 A3029 RMK A01 T00471023  RH  061%=      5-min Rain = 0
KRRS 191830Z 33020G27KT 05/M02 A3029 RMK A01 T00471023  RH  061%=      5-min Rain = 0
KRRS 191835Z 34019G25KT 05/M02 A3029 RMK A01 T00481023  RH  060%=      5-min Rain = 0
KRRS 191840Z 34019G26KT 05/M02 A3029 RMK A01 T00511023  RH  059%=      5-min Rain = 0
KRRS 191845Z 34017G23KT 05/M02 A3029 RMK A01 T00521023  RH  059%=      5-min Rain = 0
KRRS 191850Z 34017G24KT 05/M02 A3029 RMK A01 T00541023  RH  058%=      5-min Rain = 0
KRRS 191855Z 35014G19KT 05/M02 A3029 RMK A01 T00541022  RH  058%=      5-min Rain = 0
KRRS 191900Z 33017KT 06/M02 A3029 RMK A01 T00561022  RH  058%=      5-min Rain = 0
KRRS 191905Z 33015G23KT 06/M02 A3029 RMK A01 T00601021  RH  057%=      5-min Rain = 0
KRRS 191910Z 35018G26KT 06/M02 A3028 RMK A01 T00591024  RH  056%=      5-min Rain = 0
KRRS 191915Z 33018G25KT 06/M02 A3028 RMK A01 T00581024  RH  056%=      5-min Rain = 0
KRRS 191920Z 35018G25KT 06/M02 A3028 RMK A01 T00591023  RH  056%=      5-min Rain = 0
KRRS 191925Z 34019G27KT 06/M02 A3028 RMK A01 T00631023  RH  055%=      5-min Rain = 0
KRRS 191930Z 35018G25KT 06/M02 A3027 RMK A01 T00601024  RH  055%=      5-min Rain = 0
KRRS 191935Z 35018G24KT 06/M02 A3027 RMK A01 T00611023  RH  055%=      5-min Rain = 0
KRRS 191940Z 36016G21KT 06/M02 A3027 RMK A01 T00611022  RH  055%=      5-min Rain = 0
KRRS 191945Z 35017G25KT 07/M02 A3026 RMK A01 T00651021  RH  055%=      5-min Rain = 0
KRRS 191950Z 34017G24KT 07/M02 A3026 RMK A01 T00671023  RH  053%=      5-min Rain = 0
KRRS 191955Z 35017G24KT 07/M02 A3026 RMK A01 T00681023  RH  053%=      5-min Rain = 0
KRRS 192000Z 36016G24KT 07/M02 A3025 RMK A01 T00681024  RH  052%=      5-min Rain = 0
KRRS 192005Z 35018G26KT 07/M02 A3025 RMK A01 T00701024  RH  051%=      5-min Rain = 0
KRRS 192010Z 35017G23KT 07/M02 A3025 RMK A01 T00701023  RH  052%=      5-min Rain = 0
KRRS 192015Z 34018G23KT 07/M02 A3025 RMK A01 T00701024  RH  052%=      5-min Rain = 0
KRRS 192020Z 34016G25KT 07/M02 A3025 RMK A01 T00721024  RH  051%=      5-min Rain = 0
KRRS 192025Z 35017G24KT 07/M02 A3025 RMK A01 T00741024  RH  050%=      5-min Rain = 0
KRRS 192030Z 35016G23KT 08/M02 A3025 RMK A01 T00771024  RH  049%=      5-min Rain = 0
KRRS 192035Z 34017G24KT 08/M03 A3025 RMK A01 T00751025  RH  050%=      5-min Rain = 0
KRRS 192040Z 34017G24KT 08/M02 A3025 RMK A01 T00751024  RH  050%=      5-min Rain = 0
KRRS 192045Z 34017G26KT 08/M03 A3025 RMK A01 T00751026  RH  049%=      5-min Rain = 0
KRRS 192050Z 35016G25KT 08/M03 A3025 RMK A01 T00761026  RH  049%=      5-min Rain = 0
KRRS 192055Z 35016G23KT 08/M03 A3025 RMK A01 T00761027  RH  048%=      5-min Rain = 0
KRRS 192100Z 34015G21KT 08/M03 A3025 RMK A01 T00791026  RH  048%=      5-min Rain = 0
KRRS 192105Z 34016KT 08/M03 A3026 RMK A01 T00791026  RH  048%=      5-min Rain = 0
KRRS 192110Z 35013G19KT 08/M02 A3026 RMK A01 T00791024  RH  049%=      5-min Rain = 0
KRRS 192115Z 35014G19KT 08/M02 A3026 RMK A01 T00801024  RH  048%=      5-min Rain = 0
KRRS 192120Z 34014KT 08/M02 A3026 RMK A01 T00781024  RH  049%=      5-min Rain = 0
KRRS 192125Z 34013KT 08/M02 A3026 RMK A01 T00771024  RH  049%=      5-min Rain = 0
KRRS 192130Z 35013KT 08/M02 A3026 RMK A01 T00801023  RH  048%=      5-min Rain = 0
KRRS 192135Z 33012KT 08/M02 A3027 RMK A01 T00821023  RH  048%=      5-min Rain = 0
KRRS 192140Z 35012KT 08/M02 A3027 RMK A01 T00821023  RH  048%=      5-min Rain = 0
KRRS 192145Z 34013G18KT 08/M02 A3026 RMK A01 T00821024  RH  048%=      5-min Rain = 0
KRRS 192150Z 35013G18KT 08/M02 A3026 RMK A01 T00821023  RH  048%=      5-min Rain = 0
KRRS 192155Z 35014G19KT 08/M02 A3026 RMK A01 T00821024  RH  048%=      5-min Rain = 0
KRRS 192200Z 34011G16KT 08/M02 A3026 RMK A01 T00841023  RH  047%=      5-min Rain = 0
KRRS 192205Z 34013KT 09/M02 A3026 RMK A01 T00851023  RH  047%=      5-min Rain = 0
KRRS 192210Z 35012KT 08/M02 A3026 RMK A01 T00841023  RH  047%=      5-min Rain = 0
KRRS 192215Z 34011G16KT 09/M02 A3026 RMK A01 T00861022  RH  047%=      5-min Rain = 0
KRRS 192220Z 35013KT 09/M02 A3026 RMK A01 T00851022  RH  047%=      5-min Rain = 0
KRRS 192225Z 34014G20KT 08/M03 A3026 RMK A01 T00831026  RH  047%=      5-min Rain = 0
KRRS 192230Z 34011G17KT 08/M03 A3026 RMK A01 T00831025  RH  047%=      5-min Rain = 0
KRRS 192235Z 36013KT 08/M03 A3026 RMK A01 T00831025  RH  047%=      5-min Rain = 0
KRRS 192240Z 35011KT 08/M03 A3026 RMK A01 T00821025  RH  047%=      5-min Rain = 0
KRRS 192245Z 34014KT 08/M03 A3026 RMK A01 T00821026  RH  047%=      5-min Rain = 0
KRRS 192250Z 35012KT 08/M03 A3026 RMK A01 T00811025  RH  047%=      5-min Rain = 0
KRRS 192255Z 35011G16KT 08/M02 A3026 RMK A01 T00811024  RH  048%=      5-min Rain = 0
KRRS 192300Z 34012KT 08/M03 A3027 RMK A01 T00801026  RH  048%=      5-min Rain = 0
KRRS 192305Z 35011KT 08/M03 A3027 RMK A01 T00801026  RH  048%=      5-min Rain = 0
KRRS 192310Z 35010KT 08/M03 A3027 RMK A01 T00801025  RH  048%=      5-min Rain = 0
KRRS 192315Z 34011KT 08/M03 A3027 RMK A01 T00791026  RH  048%=      5-min Rain = 0
KRRS 192320Z 35009KT 08/M03 A3027 RMK A01 T00781026  RH  048%=      5-min Rain = 0
KRRS 192325Z 35008KT 08/M03 A3027 RMK A01 T00771026  RH  048%=      5-min Rain = 0
KRRS 192330Z 35008KT 08/M03 A3027 RMK A01 T00761025  RH  049%=      5-min Rain = 0
KRRS 192335Z 00007KT 07/M02 A3027 RMK A01 T00731023  RH  051%=      5-min Rain = 0
KRRS 192340Z 35009KT 07/M03 A3026 RMK A01 T00711025  RH  051%=      5-min Rain = 0
KRRS 192345Z 36008KT 07/M03 A3026 RMK A01 T00691025  RH  051%=      5-min Rain = 0
KRRS 192350Z 00007KT 07/M02 A3026 RMK A01 T00671024  RH  053%=      5-min Rain = 0
KRRS 192355Z 00007KT 06/M02 A3026 RMK A01 T00631024  RH  054%=      5-min Rain = 0
KRRS 200000Z 00007KT 06/M02 A3027 RMK A01 T00581024  RH  056%=      5-min Rain = 0
KRRS 200005Z 35007KT 05/M03 A3026 RMK A01 T00531025  RH  058%=      5-min Rain = 0
KRRS 200010Z 35006KT 05/M03 A3027 RMK A01 T00481026  RH  059%=      5-min Rain = 0
KRRS 200015Z 34006KT 05/M03 A3027 RMK A01 T00451026  RH  060%=      5-min Rain = 0
KRRS 200020Z 35006KT 04/M03 A3027 RMK A01 T00431026  RH  061%=      5-min Rain = 0
KRRS 200025Z 36005KT 04/M03 A3026 RMK A01 T00411026  RH  062%=      5-min Rain = 0
KRRS 200030Z 35005KT 04/M03 A3027 RMK A01 T00401026  RH  062%=      5-min Rain = 0
KRRS 200035Z 35005KT 04/M03 A3027 RMK A01 T00381027  RH  063%=      5-min Rain = 0
KRRS 200040Z 35007KT 03/M03 A3027 RMK A01 T00331027  RH  065%=      5-min Rain = 0
KRRS 200045Z 35007KT 03/M03 A3027 RMK A01 T00311027  RH  066%=      5-min Rain = 0
KRRS 200050Z 35007KT 03/M03 A3027 RMK A01 T00291027  RH  067%=      5-min Rain = 0
KRRS 200055Z 35007KT 03/M03 A3027 RMK A01 T00291026  RH  067%=      5-min Rain = 0
KRRS 200100Z 35007KT 03/M03 A3027 RMK A01 T00291026  RH  068%=      5-min Rain = 0
KRRS 200105Z 35007KT 03/M03 A3028 RMK A01 T00281026  RH  068%=      5-min Rain = 0
KRRS 200110Z 34007KT 03/M03 A3028 RMK A01 T00281026  RH  068%=      5-min Rain = 0
KRRS 200115Z 34006KT 03/M03 A3028 RMK A01 T00291025  RH  068%=      5-min Rain = 0
KRRS 200120Z 34006KT 03/M02 A3028 RMK A01 T00311024  RH  068%=      5-min Rain = 0
KRRS 200125Z 34007KT 03/M03 A3028 RMK A01 T00301025  RH  068%=      5-min Rain = 0
KRRS 200130Z 35007KT 03/M03 A3028 RMK A01 T00271026  RH  069%=      5-min Rain = 0
KRRS 200135Z 35007KT 02/M03 A3028 RMK A01 T00241026  RH  070%=      5-min Rain = 0
KRRS 200140Z 36006KT 02/M03 A3028 RMK A01 T00231026  RH  071%=      5-min Rain = 0
KRRS 200145Z 01006KT 02/M03 A3027 RMK A01 T00221027  RH  071%=      5-min Rain = 0
KRRS 200150Z 02006KT 02/M03 A3027 RMK A01 T00201028  RH  071%=      5-min Rain = 0
KRRS 200155Z 01004KT 02/M03 A3027 RMK A01 T00181027  RH  072%=      5-min Rain = 0
KRRS 200200Z 01004KT 02/M03 A3027 RMK A01 T00181027  RH  072%=      5-min Rain = 0
KRRS 200205Z 03005KT 02/M03 A3027 RMK A01 T00201026  RH  072%=      5-min Rain = 0
KRRS 200210Z 03006KT 02/M03 A3027 RMK A01 T00211027  RH  071%=      5-min Rain = 0
KRRS 200215Z 04006KT 02/M03 A3026 RMK A01 T00171028  RH  072%=      5-min Rain = 0
KRRS 200220Z 04005KT 01/M03 A3026 RMK A01 T00141028  RH  074%=      5-min Rain = 0
KRRS 200225Z 04004KT 02/M03 A3026 RMK A01 T00151026  RH  074%=      5-min Rain = 0
KRRS 200230Z 05005KT 02/M03 A3027 RMK A01 T00181025  RH  073%=      5-min Rain = 0
KRRS 200235Z 06004KT 02/M03 A3027 RMK A01 T00211025  RH  072%=      5-min Rain = 0
KRRS 200240Z 05004KT 02/M03 A3028 RMK A01 T00211025  RH  072%=      5-min Rain = 0
KRRS 200245Z 04003KT 02/M03 A3028 RMK A01 T00211025  RH  072%=      5-min Rain = 0
KRRS 200250Z 05002KT 02/M03 A3029 RMK A01 T00201026  RH  072%=      5-min Rain = 0
KRRS 200255Z 05002KT 02/M03 A3029 RMK A01 T00191026  RH  073%=      5-min Rain = 0
KRRS 200300Z 04002KT 02/M03 A3029 RMK A01 T00211025  RH  072%=      5-min Rain = 0
KRRS 200305Z 04002KT 02/M03 A303 RMK A01 T00221025  RH  072%=      5-min Rain = 0
KRRS 200310Z 09002KT 02/M03 A303 RMK A01 T00221025  RH  072%=      5-min Rain = 0
KRRS 200315Z 09003KT 02/M03 A303 RMK A01 T00221026  RH  071%=      5-min Rain = 0
KRRS 200320Z 07003KT 02/M03 A3029 RMK A01 T00181027  RH  073%=      5-min Rain = 0
KRRS 200325Z 06003KT 02/M03 A3029 RMK A01 T00181027  RH  072%=      5-min Rain = 0
KRRS 200330Z 08005KT 02/M03 A3029 RMK A01 T00151029  RH  073%=      5-min Rain = 0
KRRS 200335Z 08004KT 01/M03 A303 RMK A01 T00111028  RH  076%=      5-min Rain = 0
KRRS 200340Z 07002KT 01/M03 A303 RMK A01 T00101029  RH  075%=      5-min Rain = 0
KRRS 200345Z 09004KT 01/M03 A303 RMK A01 T00101031  RH  075%=      5-min Rain = 0
KRRS 200350Z 09004KT 01/M03 A3029 RMK A01 T00091032  RH  075%=      5-min Rain = 0
KRRS 200355Z 09004KT 01/M03 A3029 RMK A01 T00051034  RH  076%=      5-min Rain = 0
KRRS 200400Z 09004KT 00/M03 A3029 RMK A01 T00041034  RH  076%=      5-min Rain = 0
KRRS 200405Z 09004KT 00/M04 A3029 RMK A01 T00041036  RH  075%=      5-min Rain = 0
KRRS 200410Z 09004KT 00/M04 A3029 RMK A01 T00041038  RH  074%=      5-min Rain = 0
KRRS 200415Z 08004KT 00/M04 A3029 RMK A01 T00031039  RH  074%=      5-min Rain = 0
KRRS 200420Z 09004KT 00/M04 A3029 RMK A01 T00011040  RH  074%=      5-min Rain = 0
KRRS 200425Z 08003KT 00/M04 A3029 RMK A01 T00011041  RH  074%=      5-min Rain = 0
KRRS 200430Z 07004KT 00/M04 A303 RMK A01 T00011043  RH  073%=      5-min Rain = 0
KRRS 200435Z 10003KT M00/M04 A303 RMK A01 T10021043  RH  074%=      5-min Rain = 0
KRRS 200440Z 10004KT M00/M04 A3028 RMK A01 T10021043  RH  075%=      5-min Rain = 0
KRRS 200445Z 10005KT M00/M04 A3028 RMK A01 T10031042  RH  075%=      5-min Rain = 0
KRRS 200450Z 09005KT M01/M04 A3028 RMK A01 T10061043  RH  077%=      5-min Rain = 0
KRRS 200455Z 12004KT M01/M04 A3028 RMK A01 T10081043  RH  077%=      5-min Rain = 0
KRRS 200500Z 12004KT M01/M05 A3029 RMK A01 T10081046  RH  076%=      5-min Rain = 0
KRRS 200505Z 12004KT M01/M05 A3029 RMK A01 T10071047  RH  075%=      5-min Rain = 0
KRRS 200510Z 15004KT M01/M05 A3029 RMK A01 T10091051  RH  074%=      5-min Rain = 0
KRRS 200515Z 16004KT M01/M05 A3029 RMK A01 T10121053  RH  074%=      5-min Rain = 0
KRRS 200520Z 15004KT M02/M05 A3029 RMK A01 T10151053  RH  076%=      5-min Rain = 0
KRRS 200525Z 15005KT M02/M05 A303 RMK A01 T10151051  RH  076%=      5-min Rain = 0
KRRS 200530Z 15004KT M01/M05 A3031 RMK A01 T10141053  RH  075%=      5-min Rain = 0
KRRS 200535Z 15004KT M01/M05 A3031 RMK A01 T10121054  RH  074%=      5-min Rain = 0
KRRS 200540Z 17004KT M01/M05 A3032 RMK A01 T10121053  RH  074%=      5-min Rain = 0
KRRS 200545Z 18004KT M01/M05 A3032 RMK A01 T10111051  RH  075%=      5-min Rain = 0
KRRS 200550Z 19006KT M01/M05 A3031 RMK A01 T10121050  RH  076%=      5-min Rain = 0
KRRS 200555Z 18005KT M02/M05 A3031 RMK A01 T10181048  RH  080%=      5-min Rain = 0

Page generated in 0.0283 seconds.